Time;durP1;ratioP1;P1;durP2;ratioP2;P2;SDS_P1;SDS_P2;PMS_P1;PMS_P2;Temp;Humidity;BMP_temperature;BMP_pressure;BME280_temperature;BME280_humidity;BME280_pressure;Samples;Min_cycle;Max_cycle;Signal;HPM_P1;HPM_P2
2023/05/18 00:00:15;;;;;;;3.17;2.75;;;6.10;99.90;;;;;;5109745;28;20204;-70
2023/05/18 00:02:42;;;;;;;1.80;1.70;;;6.10;99.90;;;;;;5110798;28;20203;-70
2023/05/18 00:05:09;;;;;;;2.78;2.58;;;6.20;99.90;;;;;;5110891;28;20215;-70
2023/05/18 00:07:38;;;;;;;8.00;2.55;;;6.10;99.90;;;;;;5110788;28;20314;-70
2023/05/18 00:10:06;;;;;;;2.75;2.40;;;6.10;99.90;;;;;;5109250;28;20290;-71
2023/05/18 00:12:32;;;;;;;6.10;3.22;;;6.10;99.90;;;;;;5110589;28;20207;-70
2023/05/18 00:14:59;;;;;;;1.88;1.77;;;6.10;99.90;;;;;;5110155;28;20707;-70
2023/05/18 00:17:26;;;;;;;3.83;3.08;;;6.10;99.90;;;;;;5110892;28;20264;-70
2023/05/18 00:19:53;;;;;;;2.70;2.33;;;6.10;99.90;;;;;;5109839;28;20199;-70
2023/05/18 00:22:19;;;;;;;3.75;3.25;;;6.10;99.90;;;;;;5110629;28;20606;-70
2023/05/18 00:24:48;;;;;;;3.53;2.50;;;6.10;99.90;;;;;;5110047;28;20219;-70
2023/05/18 00:27:15;;;;;;;3.08;2.63;;;6.20;99.90;;;;;;5110728;28;20318;-70
2023/05/18 00:29:41;;;;;;;5.05;2.53;;;6.10;99.90;;;;;;5109372;28;20214;-71
2023/05/18 00:32:08;;;;;;;2.63;2.42;;;6.10;99.90;;;;;;5110085;28;20228;-71
2023/05/18 00:34:35;;;;;;;2.20;2.10;;;6.10;99.90;;;;;;5110192;28;20598;-70
2023/05/18 00:37:02;;;;;;;2.58;1.92;;;6.00;99.90;;;;;;5110295;28;20250;-71
2023/05/18 00:39:29;;;;;;;5.57;3.30;;;6.10;99.90;;;;;;5109546;28;20293;-70
2023/05/18 00:41:57;;;;;;;2.53;2.33;;;6.10;99.90;;;;;;5109637;28;20308;-72
2023/05/18 00:44:24;;;;;;;3.45;3.25;;;6.10;99.90;;;;;;5110096;28;20241;-71
2023/05/18 00:46:50;;;;;;;2.50;2.35;;;6.00;99.90;;;;;;5109941;28;20223;-71
2023/05/18 00:49:17;;;;;;;5.22;3.15;;;6.00;99.90;;;;;;5100300;28;20203;-71
2023/05/18 00:51:46;;;;;;;3.03;2.70;;;5.90;99.90;;;;;;5109969;28;20227;-70
2023/05/18 00:54:13;;;;;;;3.38;2.30;;;5.90;99.90;;;;;;5110225;28;20200;-70
2023/05/18 00:56:41;;;;;;;3.60;3.10;;;5.90;99.90;;;;;;5109222;28;20242;-70
2023/05/18 00:59:10;;;;;;;2.20;2.10;;;5.80;99.90;;;;;;5109853;28;20208;-71
2023/05/18 01:01:42;;;;;;;3.45;2.80;;;5.80;99.90;;;;;;5108989;28;20601;-70
2023/05/18 01:04:09;;;;;;;2.83;2.63;;;5.80;99.90;;;;;;5109465;28;20635;-70
2023/05/18 01:06:36;;;;;;;5.90;3.50;;;5.80;99.90;;;;;;5100518;28;20597;-70
2023/05/18 01:09:05;;;;;;;4.50;2.60;;;5.80;99.90;;;;;;5108125;28;20195;-71
2023/05/18 01:11:43;;;;;;;4.50;2.83;;;5.70;99.90;;;;;;5108562;28;20711;-71
2023/05/18 01:14:20;;;;;;;4.47;3.13;;;5.80;99.90;;;;;;5109785;28;20635;-71
2023/05/18 01:16:54;;;;;;;3.45;3.00;;;5.70;99.90;;;;;;5100933;28;20247;-71
2023/05/18 01:20:00;;;;;;;3.97;3.67;;;5.60;99.90;;;;;;5108973;28;20673;-71
2023/05/18 01:22:43;;;;;;;3.25;2.95;;;5.70;99.90;;;;;;5105281;28;20325;-71
2023/05/18 01:25:18;;;;;;;4.40;3.03;;;5.60;99.90;;;;;;5109151;27;20326;-71
2023/05/18 01:27:48;;;;;;;2.75;2.55;;;5.60;99.90;;;;;;5109440;28;20209;-71
2023/05/18 01:30:17;;;;;;;3.75;3.45;;;5.60;99.90;;;;;;5108242;28;20279;-71
2023/05/18 01:32:46;;;;;;;3.47;2.55;;;5.50;99.90;;;;;;5108851;28;20198;-71
2023/05/18 01:35:13;;;;;;;6.47;2.97;;;5.50;99.90;;;;;;5108869;28;20249;-71
2023/05/18 01:37:40;;;;;;;4.28;2.15;;;5.60;99.90;;;;;;5109117;28;20205;-71
2023/05/18 01:40:09;;;;;;;3.65;3.25;;;5.60;99.90;;;;;;5099676;28;20199;-71
2023/05/18 01:42:44;;;;;;;5.00;3.75;;;5.60;99.90;;;;;;5108793;28;20198;-71
2023/05/18 01:45:18;;;;;;;3.92;3.50;;;5.60;99.90;;;;;;5108513;27;20219;-71
2023/05/18 01:47:48;;;;;;;4.15;3.78;;;5.60;99.90;;;;;;5107623;28;20194;-71
2023/05/18 01:50:21;;;;;;;4.10;3.60;;;5.60;99.90;;;;;;5107076;28;20296;-70
2023/05/18 01:52:53;;;;;;;5.22;3.33;;;5.60;99.90;;;;;;5108620;28;20667;-71
2023/05/18 01:55:22;;;;;;;3.90;3.00;;;5.60;99.90;;;;;;5108363;28;20272;-71
2023/05/18 01:57:52;;;;;;;3.00;2.33;;;5.50;99.90;;;;;;5108880;28;20199;-71
2023/05/18 02:00:23;;;;;;;3.05;2.53;;;5.50;99.90;;;;;;5107640;28;20220;-71
2023/05/18 02:02:50;;;;;;;4.35;2.90;;;5.50;99.90;;;;;;5108631;28;20195;-71
2023/05/18 02:05:18;;;;;;;4.55;2.28;;;5.50;99.90;;;;;;5108011;28;20238;-71
2023/05/18 02:07:47;;;;;;;2.65;2.50;;;5.50;99.90;;;;;;5109133;28;20226;-70
2023/05/18 02:10:15;;;;;;;5.28;3.38;;;5.50;99.90;;;;;;5107576;28;20203;-71
2023/05/18 02:12:42;;;;;;;3.85;2.58;;;5.40;99.90;;;;;;5100157;28;20702;-71
2023/05/18 02:15:10;;;;;;;11.82;3.80;;;5.50;99.90;;;;;;5108349;28;20261;-71
2023/05/18 02:17:38;;;;;;;4.95;2.42;;;5.50;99.90;;;;;;5108248;28;20228;-71
2023/05/18 02:20:06;;;;;;;3.17;2.83;;;5.40;99.90;;;;;;5107677;28;20234;-71
2023/05/18 02:22:33;;;;;;;5.10;3.40;;;5.40;99.90;;;;;;5108316;28;20203;-71
2023/05/18 02:25:00;;;;;;;5.95;3.65;;;5.40;99.90;;;;;;5108166;28;20210;-70
2023/05/18 02:27:27;;;;;;;5.88;3.88;;;5.40;99.90;;;;;;5108194;28;20269;-70
2023/05/18 02:29:55;;;;;;;4.68;3.33;;;5.30;99.90;;;;;;5107701;28;20209;-70
2023/05/18 02:32:22;;;;;;;5.55;3.63;;;5.30;99.90;;;;;;5107195;28;20239;-70
2023/05/18 02:34:53;;;;;;;6.70;3.42;;;5.30;99.90;;;;;;5108334;28;20199;-70
2023/05/18 02:37:21;;;;;;;3.65;2.90;;;5.20;99.90;;;;;;5107942;28;20257;-70
2023/05/18 02:39:49;;;;;;;2.90;2.65;;;5.20;99.90;;;;;;5107654;28;20203;-70
2023/05/18 02:42:17;;;;;;;2.70;1.95;;;5.20;99.90;;;;;;5107899;28;20305;-70
2023/05/18 02:44:45;;;;;;;8.13;3.60;;;5.20;99.90;;;;;;5108016;28;20706;-70
2023/05/18 02:47:12;;;;;;;3.15;2.72;;;5.20;99.90;;;;;;5107425;28;20438;-70
2023/05/18 02:49:39;;;;;;;2.92;1.90;;;5.20;99.90;;;;;;5106557;28;20195;-70
2023/05/18 02:52:08;;;;;;;4.50;2.65;;;5.20;99.90;;;;;;5108088;28;20600;-70
2023/05/18 02:54:35;;;;;;;2.85;2.33;;;5.10;99.90;;;;;;5108134;28;20195;-70
2023/05/18 02:57:02;;;;;;;3.92;3.50;;;5.10;99.90;;;;;;5107820;28;20308;-70
2023/05/18 02:59:30;;;;;;;3.17;2.95;;;5.00;99.90;;;;;;5106888;28;20244;-70
2023/05/18 03:01:57;;;;;;;4.97;2.88;;;5.00;99.90;;;;;;5108226;28;20280;-70
2023/05/18 03:04:25;;;;;;;7.22;2.08;;;5.00;99.90;;;;;;5107781;28;20241;-70
2023/05/18 03:06:52;;;;;;;2.70;2.50;;;4.90;99.90;;;;;;5107894;28;20221;-70
2023/05/18 03:09:21;;;;;;;3.50;2.65;;;4.90;99.90;;;;;;5107168;28;20213;-70
2023/05/18 03:11:49;;;;;;;3.05;2.45;;;4.70;99.90;;;;;;5107530;28;20842;-70
2023/05/18 03:14:16;;;;;;;3.80;2.70;;;4.70;99.90;;;;;;5106589;28;21088;-70
2023/05/18 03:16:43;;;;;;;3.10;2.72;;;4.70;99.90;;;;;;5107780;28;20652;-70
2023/05/18 03:19:12;;;;;;;2.50;2.30;;;4.70;99.90;;;;;;5107693;28;20735;-70
2023/05/18 03:21:41;;;;;;;4.35;3.03;;;4.70;99.90;;;;;;5107190;28;20226;-71
2023/05/18 03:24:08;;;;;;;6.55;3.78;;;4.80;99.90;;;;;;5107674;28;20198;-70
2023/05/18 03:26:38;;;;;;;5.00;3.20;;;4.70;99.90;;;;;;5107063;28;20530;-71
2023/05/18 03:29:05;;;;;;;3.47;2.85;;;4.80;99.90;;;;;;5108121;28;20575;-71
2023/05/18 03:31:32;;;;;;;1.90;1.75;;;4.80;99.90;;;;;;5106592;28;20941;-70
2023/05/18 03:33:59;;;;;;;1.85;1.67;;;4.80;99.90;;;;;;5107625;28;20199;-71
2023/05/18 03:36:26;;;;;;;3.08;2.85;;;4.90;99.90;;;;;;5107325;28;20306;-71
2023/05/18 03:38:53;;;;;;;3.33;2.58;;;4.80;99.90;;;;;;5107535;28;20237;-71
2023/05/18 03:41:20;;;;;;;7.07;3.00;;;4.90;99.90;;;;;;5106536;28;20226;-70
2023/05/18 03:43:49;;;;;;;2.97;2.78;;;5.00;99.90;;;;;;5107751;28;20194;-70
2023/05/18 03:46:16;;;;;;;4.20;3.05;;;5.00;99.90;;;;;;5102730;28;20231;-70
2023/05/18 03:48:43;;;;;;;3.17;2.78;;;5.00;99.90;;;;;;5111398;28;20199;-70
2023/05/18 03:51:10;;;;;;;3.85;3.55;;;5.10;99.90;;;;;;5109265;28;20239;-70
2023/05/18 03:53:37;;;;;;;6.40;3.17;;;5.10;99.90;;;;;;5110867;28;20206;-71
2023/05/18 03:56:03;;;;;;;9.63;3.65;;;5.00;99.90;;;;;;5110913;28;20219;-71
2023/05/18 03:58:30;;;;;;;3.70;3.40;;;5.10;99.90;;;;;;5110826;28;20247;-71
2023/05/18 04:00:59;;;;;;;5.57;5.03;;;5.10;99.90;;;;;;5110202;28;20232;-70
2023/05/18 04:03:26;;;;;;;2.17;1.80;;;5.10;99.90;;;;;;5110675;28;20207;-70
2023/05/18 04:05:53;;;;;;;2.28;2.08;;;5.40;99.90;;;;;;5110856;28;20802;-70
2023/05/18 04:08:24;;;;;;;4.75;4.10;;;5.40;99.90;;;;;;5110445;28;20206;-70
2023/05/18 04:10:51;;;;;;;2.95;2.38;;;5.50;99.90;;;;;;5110166;27;20802;-71
2023/05/18 04:13:18;;;;;;;2.95;2.25;;;5.50;99.90;;;;;;5110774;28;20591;-70
2023/05/18 04:15:44;;;;;;;2.88;1.45;;;5.50;99.90;;;;;;5110600;28;20246;-71
2023/05/18 04:18:13;;;;;;;2.58;2.38;;;5.60;99.90;;;;;;5110670;28;20203;-71
2023/05/18 04:20:41;;;;;;;11.38;2.88;;;5.50;99.90;;;;;;5109295;28;20236;-70
2023/05/18 04:23:08;;;;;;;3.83;2.80;;;5.50;99.90;;;;;;5110636;27;20202;-70
2023/05/18 04:25:38;;;;;;;2.83;2.47;;;5.40;99.90;;;;;;5110538;28;20234;-70
2023/05/18 04:28:05;;;;;;;5.97;3.13;;;5.40;99.90;;;;;;5110441;28;20218;-70
2023/05/18 04:30:34;;;;;;;3.03;2.25;;;5.40;99.90;;;;;;5109505;28;20721;-71
2023/05/18 04:33:02;;;;;;;4.55;3.25;;;5.40;99.90;;;;;;5110375;28;20247;-71
2023/05/18 04:35:31;;;;;;;3.75;3.45;;;5.40;99.90;;;;;;5109681;28;20700;-71
2023/05/18 04:37:58;;;;;;;3.13;2.92;;;5.50;99.90;;;;;;5110334;28;20206;-71
2023/05/18 04:40:25;;;;;;;6.95;2.33;;;5.50;99.90;;;;;;5109533;28;20225;-71
2023/05/18 04:42:51;;;;;;;3.13;2.88;;;5.50;99.90;;;;;;5110190;28;20561;-70
2023/05/18 04:45:20;;;;;;;3.45;3.15;;;5.50;99.90;;;;;;5110096;28;20380;-70
2023/05/18 04:47:51;;;;;;;4.63;3.72;;;5.60;99.90;;;;;;5109757;28;20202;-70
2023/05/18 04:50:19;;;;;;;3.10;2.70;;;5.70;99.90;;;;;;5099798;28;20202;-70
2023/05/18 04:52:50;;;;;;;4.80;3.63;;;5.70;99.90;;;;;;5110486;28;20207;-70
2023/05/18 04:55:21;;;;;;;3.50;3.15;;;5.80;99.90;;;;;;5109469;28;20294;-70
2023/05/18 04:57:48;;;;;;;9.13;2.33;;;5.70;99.90;;;;;;5110033;27;20221;-70
2023/05/18 05:00:16;;;;;;;3.15;2.60;;;5.70;99.90;;;;;;5108567;28;20209;-70
2023/05/18 05:02:42;;;;;;;3.28;2.97;;;5.80;99.90;;;;;;5109789;28;20301;-70
2023/05/18 05:05:09;;;;;;;8.55;4.65;;;5.80;99.90;;;;;;5109595;28;20233;-71
2023/05/18 05:07:36;;;;;;;4.00;3.70;;;5.80;99.90;;;;;;5101697;28;20207;-70
2023/05/18 05:10:05;;;;;;;4.63;3.80;;;5.80;99.90;;;;;;5108852;28;20207;-71
2023/05/18 05:12:32;;;;;;;3.83;3.08;;;5.80;99.90;;;;;;5109524;28;20245;-70
2023/05/18 05:14:59;;;;;;;2.88;2.22;;;5.90;99.90;;;;;;5109599;28;20699;-71
2023/05/18 05:17:26;;;;;;;5.65;3.05;;;6.00;99.90;;;;;;5109372;28;20222;-71
2023/05/18 05:19:53;;;;;;;2.85;2.53;;;6.10;99.90;;;;;;5108752;28;20196;-70
2023/05/18 05:22:20;;;;;;;2.92;2.58;;;6.10;99.90;;;;;;5109346;28;20279;-71
2023/05/18 05:24:46;;;;;;;3.20;2.63;;;6.10;99.90;;;;;;5109216;27;20258;-70
2023/05/18 05:27:15;;;;;;;4.85;3.33;;;6.20;99.90;;;;;;5109233;28;20304;-70
2023/05/18 05:29:41;;;;;;;3.45;2.53;;;6.40;99.90;;;;;;5108426;28;20720;-71
2023/05/18 05:32:08;;;;;;;3.17;2.33;;;6.50;99.90;;;;;;5108869;28;20231;-71
2023/05/18 05:34:36;;;;;;;3.92;2.75;;;6.50;99.90;;;;;;5109185;28;20225;-71
2023/05/18 05:37:03;;;;;;;4.93;3.90;;;6.70;99.90;;;;;;5108745;28;20215;-70
2023/05/18 05:39:30;;;;;;;3.28;3.00;;;6.70;99.90;;;;;;5108635;28;20203;-71
2023/05/18 05:41:56;;;;;;;5.78;2.88;;;6.80;99.90;;;;;;5108446;28;20224;-71
2023/05/18 05:44:25;;;;;;;2.53;2.30;;;7.00;99.90;;;;;;5108893;28;20214;-71
2023/05/18 05:46:51;;;;;;;5.72;3.58;;;6.90;99.90;;;;;;5108757;28;20309;-70
2023/05/18 05:49:18;;;;;;;4.10;3.78;;;6.90;99.90;;;;;;5107016;28;20205;-72
2023/05/18 05:51:45;;;;;;;4.60;2.53;;;6.90;99.90;;;;;;5108606;28;20230;-71
2023/05/18 05:54:12;;;;;;;2.92;2.72;;;7.20;99.90;;;;;;5108915;28;20204;-71
2023/05/18 05:56:38;;;;;;;8.32;3.42;;;7.30;99.90;;;;;;5108303;28;20730;-71
2023/05/18 05:59:05;;;;;;;3.03;2.67;;;7.40;99.90;;;;;;5108729;28;20205;-71
2023/05/18 06:01:33;;;;;;;6.15;2.50;;;7.50;99.90;;;;;;5108338;28;20570;-71
2023/05/18 06:04:01;;;;;;;7.40;3.60;;;7.70;99.60;;;;;;5108448;28;20204;-71
2023/05/18 06:06:28;;;;;;;2.47;2.28;;;7.70;99.40;;;;;;5108008;28;21279;-71
2023/05/18 06:08:55;;;;;;;3.90;2.90;;;7.80;98.90;;;;;;5108221;28;20201;-71
2023/05/18 06:11:21;;;;;;;5.68;2.35;;;7.80;99.00;;;;;;5107322;28;20234;-70
2023/05/18 06:13:48;;;;;;;2.50;2.17;;;8.00;98.70;;;;;;5108590;28;20193;-71
2023/05/18 06:16:15;;;;;;;1.93;1.47;;;7.90;98.50;;;;;;5108285;28;21048;-71
2023/05/18 06:18:43;;;;;;;4.70;4.20;;;8.00;98.40;;;;;;5108275;28;20982;-71
2023/05/18 06:21:10;;;;;;;3.50;2.00;;;8.30;98.10;;;;;;5107451;28;20657;-71
2023/05/18 06:23:36;;;;;;;1.97;1.87;;;8.40;98.30;;;;;;5108280;28;20626;-71
2023/05/18 06:26:03;;;;;;;2.80;2.30;;;8.50;97.40;;;;;;5108003;28;20650;-71
2023/05/18 06:28:30;;;;;;;2.33;2.13;;;8.40;97.30;;;;;;5108494;28;20632;-71
2023/05/18 06:30:57;;;;;;;2.30;2.10;;;8.50;97.20;;;;;;5098698;28;20668;-71
2023/05/18 06:33:25;;;;;;;4.30;2.40;;;8.80;97.20;;;;;;5108379;28;20633;-71
2023/05/18 06:35:53;;;;;;;2.30;2.10;;;9.10;96.70;;;;;;5107771;28;21064;-71
2023/05/18 06:38:20;;;;;;;4.37;2.73;;;9.00;96.40;;;;;;5107897;28;20622;-71
2023/05/18 06:40:47;;;;;;;5.03;2.47;;;9.00;96.30;;;;;;5106954;28;21255;-71
2023/05/18 06:43:13;;;;;;;1.87;1.73;;;8.80;95.90;;;;;;5108636;28;20625;-71
2023/05/18 06:45:40;;;;;;;1.57;1.47;;;8.70;95.90;;;;;;5108235;28;21448;-71
2023/05/18 06:48:07;;;;;;;2.20;2.10;;;8.50;95.80;;;;;;5107970;28;21205;-71
2023/05/18 06:50:34;;;;;;;2.73;2.53;;;8.70;96.60;;;;;;5105600;28;20657;-70
2023/05/18 06:53:03;;;;;;;2.43;2.13;;;8.90;96.20;;;;;;5107528;28;20630;-71
2023/05/18 06:55:30;;;;;;;2.30;2.10;;;8.90;95.70;;;;;;5108001;28;20650;-71
2023/05/18 06:57:57;;;;;;;2.13;1.87;;;9.00;95.80;;;;;;5108186;28;21229;-71
2023/05/18 07:00:24;;;;;;;2.17;1.90;;;9.20;95.90;;;;;;5106959;28;20647;-71
2023/05/18 07:02:50;;;;;;;3.37;3.07;;;9.60;95.70;;;;;;5107897;28;20615;-71
2023/05/18 07:05:17;;;;;;;3.00;1.97;;;9.80;95.70;;;;;;5107390;28;20624;-71
2023/05/18 07:07:44;;;;;;;2.33;2.23;;;9.90;94.70;;;;;;5107753;28;21210;-71
2023/05/18 07:10:12;;;;;;;2.10;1.90;;;9.90;94.90;;;;;;5107192;28;20633;-71
2023/05/18 07:12:39;;;;;;;6.23;2.47;;;10.30;93.90;;;;;;5099526;28;21174;-71
2023/05/18 07:15:07;;;;;;;1.83;1.73;;;10.10;93.90;;;;;;5107648;28;20625;-71
2023/05/18 07:17:34;;;;;;;3.70;2.20;;;9.90;94.30;;;;;;5107752;28;20690;-71
2023/05/18 07:20:01;;;;;;;1.50;1.13;;;9.90;94.60;;;;;;5108741;28;20614;-71
2023/05/18 07:22:27;;;;;;;1.33;1.23;;;9.90;94.60;;;;;;5111680;28;20682;-71
2023/05/18 07:24:55;;;;;;;3.70;1.93;;;10.00;93.70;;;;;;5111395;28;20626;-71
2023/05/18 07:27:23;;;;;;;1.93;1.60;;;10.20;93.50;;;;;;5111487;28;20665;-70
2023/05/18 07:29:50;;;;;;;3.00;1.93;;;10.50;93.60;;;;;;5110756;28;20633;-71
2023/05/18 07:32:16;;;;;;;7.03;2.10;;;10.80;92.90;;;;;;5111789;28;20660;-71
2023/05/18 07:34:44;;;;;;;4.07;2.37;;;10.80;93.10;;;;;;5110957;27;20967;-71
2023/05/18 07:37:11;;;;;;;8.10;2.93;;;11.00;92.70;;;;;;5111522;28;20641;-71
2023/05/18 07:39:38;;;;;;;3.77;2.40;;;11.30;92.40;;;;;;5110599;28;20627;-70
2023/05/18 07:42:05;;;;;;;5.90;2.70;;;11.10;92.60;;;;;;5111348;28;20649;-70
2023/05/18 07:44:34;;;;;;;4.17;1.87;;;11.50;92.20;;;;;;5111247;28;20695;-71
2023/05/18 07:47:00;;;;;;;2.23;1.73;;;11.60;91.90;;;;;;5110558;28;21253;-71
2023/05/18 07:49:27;;;;;;;2.50;2.30;;;11.90;90.60;;;;;;5109070;28;21185;-71
2023/05/18 07:51:54;;;;;;;3.03;2.80;;;12.00;90.70;;;;;;5111162;27;20654;-72
2023/05/18 07:54:21;;;;;;;3.20;1.77;;;12.20;90.50;;;;;;5102955;28;20623;-72
2023/05/18 07:56:47;;;;;;;2.77;2.43;;;12.40;90.30;;;;;;5110778;28;20633;-71
2023/05/18 07:59:14;;;;;;;2.30;2.00;;;12.60;89.10;;;;;;5111274;28;20683;-71
2023/05/18 08:01:43;;;;;;;2.10;1.90;;;12.60;89.60;;;;;;5109933;28;20653;-71
2023/05/18 08:04:10;;;;;;;2.40;2.20;;;12.80;88.70;;;;;;5111129;28;21194;-69
2023/05/18 08:06:37;;;;;;;1.40;1.30;;;12.90;87.40;;;;;;5110887;28;20749;-69
2023/05/18 08:09:05;;;;;;;3.00;2.80;;;13.10;87.70;;;;;;5110804;27;20614;-70
2023/05/18 08:11:32;;;;;;;2.70;2.50;;;13.00;88.40;;;;;;5109949;27;21051;-69
2023/05/18 08:13:59;;;;;;;4.53;2.33;;;13.00;88.60;;;;;;5110656;28;20630;-69
2023/05/18 08:16:26;;;;;;;4.90;2.90;;;13.40;87.50;;;;;;5110488;28;21036;-70
2023/05/18 08:18:54;;;;;;;4.63;2.70;;;13.30;86.80;;;;;;5110866;28;21207;-71
2023/05/18 08:21:21;;;;;;;2.57;1.70;;;13.50;86.10;;;;;;5109697;28;21217;-70
2023/05/18 08:23:48;;;;;;;2.07;1.93;;;13.50;85.90;;;;;;5110303;28;21180;-70
2023/05/18 08:26:14;;;;;;;2.50;1.70;;;13.60;83.90;;;;;;5110580;28;20673;-70
2023/05/18 08:28:41;;;;;;;2.33;1.90;;;13.60;85.70;;;;;;5109998;28;21167;-70
2023/05/18 08:31:08;;;;;;;2.63;2.43;;;13.30;86.50;;;;;;5109171;28;20672;-69
2023/05/18 08:33:38;;;;;;;2.10;1.90;;;13.60;87.20;;;;;;5110403;28;20623;-70
2023/05/18 08:36:07;;;;;;;2.07;1.97;;;13.80;84.90;;;;;;5101925;28;20732;-69
2023/05/18 08:38:34;;;;;;;1.90;1.80;;;14.00;83.50;;;;;;5110378;27;20631;-70
2023/05/18 08:41:12;;;;;;;3.30;3.00;;;14.00;81.30;;;;;;5109213;28;20698;-69
2023/05/18 08:43:42;;;;;;;5.40;2.37;;;14.00;83.10;;;;;;5110222;28;20630;-69
2023/05/18 08:46:19;;;;;;;5.40;2.70;;;14.10;84.00;;;;;;5110055;28;20652;-69
2023/05/18 08:48:46;;;;;;;2.57;2.37;;;14.40;83.30;;;;;;5109865;27;21181;-69
2023/05/18 08:51:18;;;;;;;3.00;2.00;;;14.40;80.70;;;;;;5107964;28;20990;-69
2023/05/18 08:53:48;;;;;;;2.80;1.90;;;14.40;80.70;;;;;;5109826;28;20616;-69
2023/05/18 08:56:16;;;;;;;2.37;1.60;;;14.40;82.40;;;;;;5109980;28;20651;-69
2023/05/18 08:58:47;;;;;;;2.60;2.40;;;14.50;80.90;;;;;;5109781;28;20621;-70
2023/05/18 09:01:14;;;;;;;5.00;2.07;;;14.70;79.80;;;;;;5109267;28;20648;-71
2023/05/18 09:03:42;;;;;;;3.43;2.30;;;14.70;76.70;;;;;;5109971;28;20615;-69
2023/05/18 09:06:09;;;;;;;2.80;2.60;;;14.80;78.20;;;;;;5109161;28;20656;-69
2023/05/18 09:08:38;;;;;;;1.90;1.47;;;14.90;77.80;;;;;;5110008;28;20617;-69
2023/05/18 09:11:05;;;;;;;2.37;1.83;;;14.90;75.70;;;;;;5108856;28;20652;-69
2023/05/18 09:13:32;;;;;;;3.80;2.50;;;15.20;74.60;;;;;;5109736;28;20981;-69
2023/05/18 09:15:59;;;;;;;1.77;1.40;;;15.30;76.10;;;;;;5109895;28;20680;-70
2023/05/18 09:18:26;;;;;;;2.20;1.83;;;15.30;74.90;;;;;;5109636;28;20621;-69
2023/05/18 09:20:52;;;;;;;3.30;3.00;;;15.20;74.90;;;;;;5108311;28;21290;-71
2023/05/18 09:23:19;;;;;;;5.13;1.97;;;15.20;75.90;;;;;;5109766;28;20622;-70
2023/05/18 09:25:49;;;;;;;2.83;2.17;;;15.30;75.10;;;;;;5108967;27;20752;-69
2023/05/18 09:28:27;;;;;;;1.70;1.60;;;15.30;74.30;;;;;;5109411;28;20741;-70
2023/05/18 09:30:53;;;;;;;2.17;1.83;;;15.60;75.30;;;;;;5108279;27;20675;-69
2023/05/18 09:33:22;;;;;;;2.60;2.00;;;15.80;73.30;;;;;;5109580;28;20627;-70
2023/05/18 09:35:50;;;;;;;1.30;1.20;;;15.60;71.20;;;;;;5108909;28;20646;-69
2023/05/18 09:38:20;;;;;;;1.80;1.50;;;15.40;70.70;;;;;;5109362;28;20634;-70
2023/05/18 09:40:49;;;;;;;2.20;1.83;;;15.30;70.60;;;;;;5108341;28;20653;-69
2023/05/18 09:43:17;;;;;;;1.70;1.60;;;15.20;70.90;;;;;;5107743;28;21205;-70
2023/05/18 09:45:45;;;;;;;2.30;2.03;;;15.40;69.60;;;;;;5108751;27;20637;-69
2023/05/18 09:48:13;;;;;;;1.57;1.47;;;15.30;69.50;;;;;;5108905;28;20657;-69
2023/05/18 09:50:40;;;;;;;2.97;2.77;;;15.40;71.90;;;;;;5106978;28;20732;-71
2023/05/18 09:53:08;;;;;;;2.50;2.03;;;15.50;70.50;;;;;;5108950;28;20629;-71
2023/05/18 09:55:38;;;;;;;1.43;1.33;;;15.50;70.70;;;;;;5109070;28;20646;-71
2023/05/18 09:58:07;;;;;;;2.43;2.23;;;15.60;70.70;;;;;;5108569;28;20626;-70
2023/05/18 10:00:37;;;;;;;2.10;1.93;;;15.90;70.00;;;;;;5107714;28;20642;-70
2023/05/18 10:03:04;;;;;;;2.30;2.10;;;16.20;69.00;;;;;;5108533;28;20671;-70
2023/05/18 10:05:32;;;;;;;1.77;1.67;;;16.30;71.10;;;;;;5100544;28;20665;-70
2023/05/18 10:07:59;;;;;;;1.50;1.40;;;16.20;67.90;;;;;;5108504;28;21212;-69
2023/05/18 10:10:28;;;;;;;2.03;1.83;;;16.10;66.40;;;;;;5108049;28;20714;-70
2023/05/18 10:12:57;;;;;;;1.40;1.23;;;16.10;67.50;;;;;;5108439;28;21570;-70
2023/05/18 10:15:25;;;;;;;1.80;1.70;;;16.30;67.40;;;;;;5108286;27;20744;-71
2023/05/18 10:17:56;;;;;;;2.40;2.17;;;16.50;66.50;;;;;;5108656;28;21054;-68
2023/05/18 10:20:25;;;;;;;3.17;2.23;;;16.60;64.70;;;;;;5107740;28;20641;-68
2023/05/18 10:22:55;;;;;;;3.30;1.80;;;16.80;66.80;;;;;;5109098;28;20630;-68
2023/05/18 10:25:24;;;;;;;3.20;2.13;;;16.90;64.70;;;;;;5107709;28;20965;-68
2023/05/18 10:27:55;;;;;;;3.57;3.30;;;17.10;65.20;;;;;;5107869;28;21029;-68
2023/05/18 10:30:22;;;;;;;1.60;1.50;;;16.90;63.10;;;;;;5107503;28;21195;-70
2023/05/18 10:32:52;;;;;;;1.70;1.60;;;16.80;65.00;;;;;;5108425;28;20727;-70
2023/05/18 10:35:20;;;;;;;1.83;1.73;;;16.90;65.80;;;;;;5108215;28;20624;-70
2023/05/18 10:37:47;;;;;;;2.17;2.07;;;17.00;65.50;;;;;;5107869;28;20637;-70
2023/05/18 10:40:16;;;;;;;2.37;2.07;;;17.10;64.00;;;;;;5107700;28;21021;-70
2023/05/18 10:42:45;;;;;;;1.80;1.47;;;16.80;64.10;;;;;;5108097;28;20725;-70
2023/05/18 10:45:12;;;;;;;2.37;1.40;;;16.80;63.80;;;;;;5099835;28;20691;-70
2023/05/18 10:47:41;;;;;;;2.20;1.90;;;17.00;65.80;;;;;;5107995;28;21210;-71
2023/05/18 10:50:10;;;;;;;1.27;1.23;;;17.30;67.00;;;;;;5105644;28;20615;-70
2023/05/18 10:52:37;;;;;;;2.43;1.50;;;17.40;66.60;;;;;;5108146;28;20638;-71
2023/05/18 10:55:06;;;;;;;2.53;1.70;;;17.70;62.40;;;;;;5112275;28;20618;-70
2023/05/18 10:57:37;;;;;;;2.03;1.80;;;17.80;64.00;;;;;;5112060;28;21190;-70
2023/05/18 11:00:08;;;;;;;2.93;2.73;;;17.90;63.10;;;;;;5112184;28;20620;-71
2023/05/18 11:02:35;;;;;;;2.43;2.23;;;17.90;60.30;;;;;;5112503;28;20623;-69
2023/05/18 11:05:05;;;;;;;2.33;1.93;;;18.00;60.60;;;;;;5111825;28;20615;-69
2023/05/18 11:07:34;;;;;;;2.60;1.93;;;18.10;62.50;;;;;;5103608;28;20693;-69
2023/05/18 11:10:01;;;;;;;2.17;1.90;;;18.40;61.40;;;;;;5111582;28;21107;-68
2023/05/18 11:12:32;;;;;;;2.67;2.47;;;18.40;59.40;;;;;;5111809;28;20631;-69
2023/05/18 11:14:59;;;;;;;2.70;1.60;;;18.50;60.00;;;;;;5112115;28;20939;-70
2023/05/18 11:17:29;;;;;;;1.83;1.70;;;18.60;61.40;;;;;;5111820;28;20643;-69
2023/05/18 11:20:17;;;;;;;1.53;1.43;;;18.80;60.00;;;;;;5111501;28;20623;-69
2023/05/18 11:22:51;;;;;;;2.40;1.90;;;19.10;59.00;;;;;;5111851;27;20622;-69
2023/05/18 11:25:37;;;;;;;2.00;1.80;;;19.20;56.90;;;;;;5111750;28;20619;-70
2023/05/18 11:28:06;;;;;;;2.50;2.33;;;19.40;56.80;;;;;;5104325;28;20651;-69
2023/05/18 11:30:47;;;;;;;2.10;2.00;;;19.70;55.90;;;;;;5111071;28;20659;-70
2023/05/18 11:33:16;;;;;;;3.53;2.37;;;19.70;55.60;;;;;;5111700;28;20739;-70
2023/05/18 11:35:56;;;;;;;2.03;1.80;;;20.20;58.30;;;;;;5111353;28;21269;-70
2023/05/18 11:38:45;;;;;;;2.60;1.60;;;20.60;56.30;;;;;;5111071;28;20627;-69
2023/05/18 11:41:31;;;;;;;1.30;1.20;;;20.80;55.00;;;;;;5103547;28;21235;-69
2023/05/18 11:44:17;;;;;;;1.47;1.40;;;21.10;54.10;;;;;;5111362;28;20655;-70
2023/05/18 11:46:55;;;;;;;2.83;1.03;;;21.50;53.90;;;;;;5111064;28;21080;-69
2023/05/18 11:49:24;;;;;;;1.57;1.47;;;21.70;53.70;;;;;;5102217;28;20618;-69
2023/05/18 11:52:02;;;;;;;2.73;1.90;;;22.20;53.20;;;;;;5111039;28;21041;-70
2023/05/18 11:54:35;;;;;;;4.33;2.10;;;23.00;52.00;;;;;;5104172;28;20627;-69
2023/05/18 11:57:02;;;;;;;1.93;1.70;;;23.60;50.20;;;;;;5110663;28;20639;-70
2023/05/18 11:59:34;;;;;;;1.83;1.73;;;24.30;49.00;;;;;;5110435;28;20623;-69
2023/05/18 12:02:02;;;;;;;1.70;1.60;;;25.10;47.90;;;;;;5111236;28;20648;-70
2023/05/18 12:04:30;;;;;;;2.63;1.80;;;25.30;46.40;;;;;;5102289;28;21184;-70
2023/05/18 12:06:57;;;;;;;2.40;2.20;;;24.90;45.70;;;;;;5110802;28;20648;-70
2023/05/18 12:09:25;;;;;;;3.00;2.00;;;25.30;45.60;;;;;;5110127;28;20719;-70
2023/05/18 12:11:55;;;;;;;5.00;2.00;;;25.70;45.00;;;;;;5110592;28;20693;-70
2023/05/18 12:14:22;;;;;;;3.07;1.57;;;25.90;45.40;;;;;;5111041;28;20619;-70
2023/05/18 12:16:49;;;;;;;1.93;1.50;;;26.00;44.50;;;;;;5110813;28;20651;-70
2023/05/18 12:19:18;;;;;;;2.10;1.53;;;26.30;44.60;;;;;;5111205;28;20619;-70
2023/05/18 12:21:45;;;;;;;2.10;1.90;;;26.90;43.80;;;;;;5101737;28;20648;-70
2023/05/18 12:24:12;;;;;;;1.60;1.33;;;28.00;41.10;;;;;;5110469;28;20620;-70
2023/05/18 12:26:39;;;;;;;1.70;1.60;;;27.80;41.40;;;;;;5110472;28;20640;-70
2023/05/18 12:29:10;;;;;;;2.00;1.90;;;27.80;41.20;;;;;;5110459;28;20663;-70
2023/05/18 12:31:41;;;;;;;3.50;1.70;;;28.00;40.30;;;;;;5109765;28;20651;-70
2023/05/18 12:34:10;;;;;;;1.77;1.67;;;27.90;39.80;;;;;;5110684;28;20628;-70
2023/05/18 12:36:41;;;;;;;1.47;1.37;;;27.90;40.40;;;;;;5109883;28;20654;-70
2023/05/18 12:39:08;;;;;;;2.07;1.93;;;27.40;40.20;;;;;;5111035;28;20620;-70
2023/05/18 12:41:35;;;;;;;1.50;1.40;;;27.10;40.50;;;;;;5109600;28;20652;-70
2023/05/18 12:44:03;;;;;;;4.13;1.97;;;26.60;40.00;;;;;;5110205;28;20624;-70
2023/05/18 12:46:31;;;;;;;2.77;1.50;;;25.60;40.80;;;;;;5110179;28;20655;-70
2023/05/18 12:49:00;;;;;;;1.70;1.60;;;24.50;41.30;;;;;;5109744;28;20659;-70
2023/05/18 12:51:32;;;;;;;1.97;1.80;;;24.30;42.80;;;;;;5108315;28;21025;-70
2023/05/18 12:53:59;;;;;;;1.83;1.73;;;23.80;42.50;;;;;;5110042;28;20634;-70
2023/05/18 12:56:27;;;;;;;1.50;1.40;;;22.90;43.30;;;;;;5109955;28;20651;-70
2023/05/18 12:58:58;;;;;;;2.57;1.83;;;22.90;44.60;;;;;;5109659;28;20672;-70